Time;durP1;ratioP1;P1;durP2;ratioP2;P2;SDS_P1;SDS_P2;PMS_P1;PMS_P2;Temp;Humidity;BMP_temperature;BMP_pressure;BME280_temperature;BME280_humidity;BME280_pressure;Samples;Min_cycle;Max_cycle;Signal;HPM_P1;HPM_P2
2022/09/08 00:02:07;;;;;;;8.77;2.85;;;;;;;20.99;62.03;100837.94;6305974;22;20003;-59
2022/09/08 00:04:32;;;;;;;10.45;2.83;;;;;;;21.02;62.01;100831.63;6305640;22;19999;-59
2022/09/08 00:06:58;;;;;;;8.45;2.67;;;;;;;20.99;62.38;100827.47;6305111;22;20053;-59
2022/09/08 00:09:23;;;;;;;8.30;3.05;;;;;;;20.91;62.06;100830.25;6307059;22;20080;-56
2022/09/08 00:11:51;;;;;;;8.95;3.15;;;;;;;20.92;62.38;100831.91;6308005;22;20319;-57
2022/09/08 00:14:17;;;;;;;11.25;2.92;;;;;;;20.89;62.25;100836.22;6307276;22;20003;-57
2022/09/08 00:16:42;;;;;;;9.10;3.05;;;;;;;20.86;63.13;100844.47;6308088;22;20426;-58
2022/09/08 00:19:07;;;;;;;12.02;2.97;;;;;;;20.84;63.60;100834.38;6307477;22;20007;-58
2022/09/08 00:21:32;;;;;;;9.45;3.33;;;;;;;20.82;64.02;100825.38;6308073;22;20041;-57
2022/09/08 00:23:58;;;;;;;9.75;2.88;;;;;;;20.80;63.62;100815.59;6307623;22;20007;-58
2022/09/08 00:26:23;;;;;;;8.65;3.13;;;;;;;20.74;64.30;100819.69;6306549;22;20003;-58
2022/09/08 00:28:49;;;;;;;7.70;2.63;;;;;;;20.75;64.82;100810.91;6307850;22;20011;-58
2022/09/08 00:31:14;;;;;;;9.55;2.90;;;;;;;20.76;64.97;100808.94;6307416;22;20015;-58
2022/09/08 00:33:40;;;;;;;9.43;3.03;;;;;;;20.76;65.47;100797.66;6306802;22;19996;-57
2022/09/08 00:36:07;;;;;;;10.65;2.88;;;;;;;20.67;65.33;100803.25;6307419;22;20133;-58
2022/09/08 00:38:32;;;;;;;8.43;2.83;;;;;;;20.63;65.23;100810.66;6307669;22;20023;-58
2022/09/08 00:40:58;;;;;;;8.73;2.50;;;;;;;20.66;65.35;100795.91;6306606;22;20070;-58
2022/09/08 00:43:34;;;;;;;6.38;2.63;;;;;;;20.70;65.10;100799.75;6307174;22;20007;-58
2022/09/08 00:46:06;;;;;;;6.57;2.30;;;;;;;20.69;65.82;100792.47;6307830;22;19999;-58
2022/09/08 00:48:31;;;;;;;;;;;;;;;20.91;63.14;100788.78;6307232;22;20023;-58
2022/09/08 00:50:58;;;;;;;8.98;2.83;;;;;;;20.68;65.91;100782.34;6307741;22;20295;-58
2022/09/08 00:53:25;;;;;;;6.40;2.70;;;;;;;20.59;65.94;100778.59;6307540;22;20328;-58
2022/09/08 00:55:51;;;;;;;7.57;2.75;;;;;;;20.53;66.39;100780.75;6306848;22;20007;-58
2022/09/08 00:58:17;;;;;;;7.10;2.40;;;;;;;20.54;67.11;100785.22;6307002;22;20014;-58
2022/09/08 01:00:43;;;;;;;8.35;2.45;;;;;;;20.58;66.81;100774.97;6307676;22;20094;-58
2022/09/08 01:03:11;;;;;;;8.38;2.50;;;;;;;20.50;67.50;100764.47;6306829;22;20016;-57
2022/09/08 01:06:06;;;;;;;8.30;2.88;;;;;;;20.58;65.98;100765.66;6307315;22;20011;-59
2022/09/08 01:14:48;;;;;;;4.45;1.98;;;;;;;20.52;66.21;100769.81;6307099;22;20018;-58
2022/09/08 01:17:28;;;;;;;7.63;2.22;;;;;;;20.44;66.88;100762.09;6306371;22;20007;-58
2022/09/08 01:19:55;;;;;;;8.10;2.42;;;;;;;20.46;67.30;100754.97;6307036;22;20419;-58
2022/09/08 01:22:39;;;;;;;6.05;2.78;;;;;;;20.43;66.76;100746.31;6306687;22;20335;-58
2022/09/08 01:25:40;;;;;;;7.20;2.63;;;;;;;20.48;66.15;100743.38;6306807;22;20004;-58
2022/09/08 01:28:12;;;;;;;8.38;2.45;;;;;;;20.42;66.94;100736.19;6307362;22;19999;-58
2022/09/08 01:30:39;;;;;;;5.78;2.28;;;;;;;20.39;66.92;100732.03;6306010;22;20332;-58
2022/09/08 01:33:08;;;;;;;6.45;2.35;;;;;;;20.35;66.74;100729.00;6307690;22;20396;-57
2022/09/08 01:35:40;;;;;;;4.80;2.03;;;;;;;20.33;66.68;100727.69;6306691;22;20349;-58
2022/09/08 01:38:06;;;;;;;5.05;2.15;;;;;;;20.33;66.43;100738.97;6307074;22;20007;-58
2022/09/08 01:40:32;;;;;;;5.45;2.17;;;;;;;20.32;66.98;100738.13;6306788;22;20090;-58
2022/09/08 01:42:57;;;;;;;5.40;1.98;;;;;;;20.30;67.17;100731.97;6306608;22;20088;-58
2022/09/08 01:45:23;;;;;;;7.47;2.22;;;;;;;20.39;67.06;100734.84;6306076;22;20050;-58
2022/09/08 01:47:49;;;;;;;7.82;3.10;;;;;;;20.32;67.17;100732.50;6306430;22;20015;-58
2022/09/08 01:50:15;;;;;;;10.68;3.97;;;;;;;20.25;67.46;100732.13;6307436;22;20343;-58
2022/09/08 01:52:40;;;;;;;13.43;3.70;;;;;;;20.24;67.36;100724.81;6305947;22;20010;-58
2022/09/08 01:55:06;;;;;;;5.80;2.95;;;;;;;20.23;67.62;100725.94;6307194;22;20010;-58
2022/09/08 01:57:31;;;;;;;5.55;2.70;;;;;;;20.24;67.54;100726.78;6306576;22;20427;-58
2022/09/08 01:59:56;;;;;;;6.10;2.67;;;;;;;20.20;67.78;100712.53;6303889;22;20010;-58
2022/09/08 02:02:21;;;;;;;6.82;2.80;;;;;;;20.18;67.63;100717.63;6306808;22;19999;-57
2022/09/08 02:04:47;;;;;;;8.60;2.85;;;;;;;20.13;68.21;100714.97;6305905;22;20011;-58
2022/09/08 02:07:12;;;;;;;6.53;2.60;;;;;;;20.14;68.27;100705.34;6306807;22;20002;-57
2022/09/08 02:09:37;;;;;;;8.68;2.95;;;;;;;20.14;68.50;100698.88;6306460;22;20050;-58
2022/09/08 02:12:04;;;;;;;7.68;3.10;;;;;;;20.16;68.14;100691.78;6305398;22;20038;-58
2022/09/08 02:14:29;;;;;;;6.93;3.03;;;;;;;20.09;68.28;100683.78;6306990;22;20078;-58
2022/09/08 02:16:54;;;;;;;5.35;3.00;;;;;;;20.06;68.73;100680.75;6306072;22;20371;-58
2022/09/08 02:19:20;;;;;;;6.47;2.65;;;;;;;20.09;68.58;100683.78;6305520;22;20007;-58
2022/09/08 02:21:45;;;;;;;8.73;3.60;;;;;;;20.05;68.56;100674.28;6306536;22;20003;-58
2022/09/08 02:24:11;;;;;;;6.05;2.70;;;;;;;20.06;68.73;100677.94;6306633;22;20003;-58
2022/09/08 02:26:37;;;;;;;6.40;2.95;;;;;;;20.05;69.00;100679.09;6306090;22;20057;-58
2022/09/08 02:29:04;;;;;;;6.47;2.72;;;;;;;20.04;69.23;100680.22;6307009;22;20692;-59
2022/09/08 02:31:29;;;;;;;7.22;2.60;;;;;;;20.00;69.22;100682.03;6306655;22;20006;-58
2022/09/08 02:33:55;;;;;;;6.30;2.58;;;;;;;20.01;69.03;100689.34;6305764;22;20006;-58
2022/09/08 02:36:21;;;;;;;6.00;2.78;;;;;;;20.03;68.39;100672.94;6307105;22;20007;-58
2022/09/08 02:38:50;;;;;;;6.85;2.38;;;;;;;19.98;68.12;100681.53;6306686;22;19999;-58
2022/09/08 02:41:16;;;;;;;3.95;2.22;;;;;;;19.97;68.31;100682.69;6305782;22;20007;-58
2022/09/08 02:43:41;;;;;;;7.10;2.28;;;;;;;19.98;67.73;100681.53;6306880;22;20011;-58
2022/09/08 02:46:09;;;;;;;10.10;2.30;;;;;;;19.96;67.57;100683.81;6307211;22;20423;-58
2022/09/08 02:48:34;;;;;;;9.15;2.40;;;;;;;19.87;67.58;100686.59;6305948;22;20045;-58
2022/09/08 02:51:02;;;;;;;7.43;2.65;;;;;;;19.90;67.47;100680.31;6306406;22;20073;-59
2022/09/08 02:53:29;;;;;;;4.97;2.50;;;;;;;19.90;67.70;100679.50;6307488;22;20087;-59
2022/09/08 02:55:56;;;;;;;6.60;2.72;;;;;;;19.85;67.79;100686.09;6306292;22;19999;-58
2022/09/08 02:58:21;;;;;;;6.18;2.38;;;;;;;19.88;67.64;100679.78;6307074;22;20478;-59
2022/09/08 03:00:46;;;;;;;5.63;2.55;;;;;;;19.88;67.97;100673.31;6306259;22;19999;-58
2022/09/08 03:03:12;;;;;;;4.93;2.28;;;;;;;19.80;66.99;100687.03;6306239;22;20078;-58
2022/09/08 03:05:37;;;;;;;6.32;2.55;;;;;;;19.85;67.09;100675.66;6307915;22;20007;-58
2022/09/08 03:08:03;;;;;;;6.10;2.40;;;;;;;19.85;67.09;100672.84;6305614;22;20493;-58
2022/09/08 03:10:30;;;;;;;8.00;2.72;;;;;;;19.78;66.64;100675.25;6307192;22;20010;-58
2022/09/08 03:12:56;;;;;;;4.72;2.50;;;;;;;19.81;67.23;100685.88;6306700;22;20319;-58
2022/09/08 03:15:24;;;;;;;5.85;2.40;;;;;;;19.80;66.91;100683.38;6306383;22;20009;-59
2022/09/08 03:17:50;;;;;;;6.88;2.53;;;;;;;19.77;66.99;100687.69;6305800;22;20025;-58
2022/09/08 03:20:16;;;;;;;5.90;2.65;;;;;;;19.74;67.22;100685.50;6306202;22;20007;-58
2022/09/08 03:22:41;;;;;;;4.63;2.45;;;;;;;19.71;66.81;100682.47;6306060;22;20007;-58
2022/09/08 03:25:07;;;;;;;5.35;2.60;;;;;;;19.77;66.93;100684.03;6307171;22;20010;-58
2022/09/08 03:27:33;;;;;;;6.82;2.80;;;;;;;19.72;67.00;100682.16;6305768;22;20010;-58
2022/09/08 03:29:58;;;;;;;6.50;2.35;;;;;;;19.71;67.56;100680.50;6306050;22;20003;-59
2022/09/08 03:32:23;;;;;;;4.53;2.70;;;;;;;19.72;67.35;100690.59;6306626;22;20011;-58
2022/09/08 03:34:49;;;;;;;6.80;2.53;;;;;;;19.73;67.23;100685.78;6305644;22;20410;-58
2022/09/08 03:37:14;;;;;;;7.82;2.95;;;;;;;19.66;67.61;100696.69;6306563;22;20007;-58
2022/09/08 03:39:39;;;;;;;8.02;2.65;;;;;;;19.66;67.49;100711.59;6306904;22;20011;-58
2022/09/08 03:42:05;;;;;;;4.97;2.58;;;;;;;19.63;67.95;100722.66;6306468;22;20011;-58
2022/09/08 03:44:32;;;;;;;5.25;2.50;;;;;;;19.56;67.92;100731.50;6307934;22;20000;-58
2022/09/08 03:46:58;;;;;;;4.80;2.63;;;;;;;19.55;68.04;100718.59;6308090;22;20015;-59
2022/09/08 03:49:23;;;;;;;4.82;2.53;;;;;;;19.59;68.16;100688.66;6308428;22;20424;-58
2022/09/08 03:51:48;;;;;;;14.77;3.50;;;;;;;19.52;68.58;100677.81;6307330;22;20058;-58
2022/09/08 03:56:57;;;;;;;6.38;2.58;;;;;;;19.50;68.18;100684.94;6307443;22;20446;-59
2022/09/08 03:59:23;;;;;;;5.43;2.67;;;;;;;19.47;68.12;100663.03;6307770;22;19995;-59
2022/09/08 04:01:49;;;;;;;5.72;2.65;;;;;;;19.52;68.08;100677.81;6307991;22;20031;-59
2022/09/08 04:04:15;;;;;;;6.50;2.30;;;;;;;19.53;68.09;100671.06;6306879;22;20083;-59
2022/09/08 04:06:40;;;;;;;5.40;2.33;;;;;;;19.49;68.17;100672.84;6308390;22;20098;-59
2022/09/08 04:09:06;;;;;;;4.03;2.15;;;;;;;19.51;68.09;100664.06;6307526;22;20010;-58
2022/09/08 04:11:32;;;;;;;6.00;2.50;;;;;;;19.51;68.16;100664.06;6307939;22;20074;-58
2022/09/08 04:13:57;;;;;;;5.13;2.50;;;;;;;19.50;67.97;100668.03;6308171;22;20007;-58
2022/09/08 04:16:22;;;;;;;4.60;2.40;;;;;;;19.45;68.59;100668.13;6308615;22;20003;-58
2022/09/08 04:18:48;;;;;;;6.78;2.50;;;;;;;19.37;68.75;100676.22;6306906;22;20039;-58
2022/09/08 04:21:13;;;;;;;5.18;3.03;;;;;;;19.41;68.39;100673.56;6308464;22;20380;-58
2022/09/08 04:23:39;;;;;;;6.43;2.58;;;;;;;19.40;68.35;100680.34;6307888;22;20031;-58
2022/09/08 04:26:07;;;;;;;4.90;2.72;;;;;;;19.37;68.82;100676.22;6306979;22;20014;-59
2022/09/08 04:28:33;;;;;;;6.70;2.55;;;;;;;19.38;68.72;100679.84;6307960;22;20076;-58
2022/09/08 04:31:05;;;;;;;5.45;2.58;;;;;;;19.30;68.88;100687.06;6308692;22;20053;-59
2022/09/08 04:33:31;;;;;;;7.22;3.13;;;;;;;19.29;68.70;100684.53;6307360;22;20070;-58
2022/09/08 04:35:57;;;;;;;7.32;2.55;;;;;;;19.30;68.57;100689.03;6307606;22;20031;-58
2022/09/08 04:38:22;;;;;;;5.15;2.30;;;;;;;19.31;68.92;100694.34;6308585;22;20003;-58
2022/09/08 04:40:48;;;;;;;6.32;2.30;;;;;;;19.24;69.02;100696.75;6305942;22;20015;-57
2022/09/08 04:43:13;;;;;;;5.72;2.30;;;;;;;19.27;69.00;100690.50;6308778;22;20086;-58
2022/09/08 04:45:38;;;;;;;7.22;3.20;;;;;;;19.26;68.93;100690.81;6308075;22;20423;-58
2022/09/08 04:48:03;;;;;;;9.80;2.83;;;;;;;19.20;69.31;100695.72;6307172;22;20019;-58
2022/09/08 04:50:29;;;;;;;5.97;2.88;;;;;;;19.20;69.15;100695.72;6307058;22;20005;-58
2022/09/08 04:52:54;;;;;;;6.03;2.33;;;;;;;19.20;69.41;100692.91;6308458;22;20032;-58
2022/09/08 04:55:19;;;;;;;6.15;3.08;;;;;;;19.20;69.34;100695.72;6307240;22;20075;-58
2022/09/08 04:57:45;;;;;;;4.03;2.80;;;;;;;19.22;69.49;100696.25;6308606;22;20326;-58
2022/09/08 05:00:12;;;;;;;7.43;3.33;;;;;;;19.20;69.33;100698.53;6308391;22;20003;-58
2022/09/08 05:02:38;;;;;;;6.07;2.90;;;;;;;19.22;69.79;100696.25;6306446;22;20439;-58
2022/09/08 05:05:04;;;;;;;5.90;2.90;;;;;;;19.20;69.80;100706.16;6307641;22;19999;-58
2022/09/08 05:07:29;;;;;;;5.07;3.03;;;;;;;19.21;69.90;100697.38;6307240;22;20480;-58
2022/09/08 05:09:54;;;;;;;8.50;3.10;;;;;;;19.17;69.93;100701.97;6307697;22;20473;-58
2022/09/08 05:12:19;;;;;;;4.65;3.20;;;;;;;19.19;69.66;100699.69;6307822;22;20086;-59
2022/09/08 05:14:45;;;;;;;8.38;3.28;;;;;;;19.17;69.78;100706.75;6307194;22;20305;-59
2022/09/08 05:17:10;;;;;;;6.15;3.20;;;;;;;19.19;70.12;100705.31;6307561;22;20023;-58
2022/09/08 05:19:35;;;;;;;4.97;3.28;;;;;;;19.20;70.10;100706.97;6307903;22;20030;-58
2022/09/08 05:22:00;;;;;;;5.85;3.00;;;;;;;19.18;70.28;100705.59;6306822;22;20007;-59
2022/09/08 05:24:26;;;;;;;5.82;3.53;;;;;;;19.17;70.29;100704.78;6307384;22;20014;-58
2022/09/08 05:26:51;;;;;;;9.05;3.78;;;;;;;19.12;70.34;100710.53;6307979;22;20000;-59
2022/09/08 05:29:16;;;;;;;9.20;3.60;;;;;;;19.15;70.14;100707.09;6306734;22;20319;-59
2022/09/08 05:31:41;;;;;;;7.95;3.90;;;;;;;19.13;70.40;100712.19;6307428;22;20419;-58
2022/09/08 05:34:08;;;;;;;6.75;3.50;;;;;;;19.09;70.43;100702.72;6307352;22;20057;-59
2022/09/08 05:36:35;;;;;;;8.43;3.53;;;;;;;19.10;70.47;100702.41;6306174;22;20007;-58
2022/09/08 05:39:02;;;;;;;8.30;3.72;;;;;;;19.09;70.56;100689.47;6308086;22;20382;-58
2022/09/08 05:41:30;;;;;;;8.30;3.60;;;;;;;19.15;70.59;100704.28;6307724;22;20007;-58
2022/09/08 05:43:57;;;;;;;7.55;3.65;;;;;;;19.13;70.71;100709.38;6305713;22;20003;-58
2022/09/08 05:46:26;;;;;;;7.82;3.78;;;;;;;19.07;70.90;100700.22;6307232;22;20003;-58
2022/09/08 05:48:53;;;;;;;8.98;4.18;;;;;;;19.09;71.01;100705.53;6306700;22;20011;-58
2022/09/08 05:51:19;;;;;;;8.88;4.38;;;;;;;19.10;70.91;100702.41;6306601;22;20003;-58
2022/09/08 05:53:45;;;;;;;6.22;4.13;;;;;;;19.10;70.92;100704.41;6307884;22;20360;-58
2022/09/08 05:56:11;;;;;;;5.95;3.80;;;;;;;19.10;70.92;100705.22;6304498;22;20007;-58
2022/09/08 05:58:45;;;;;;;9.10;4.55;;;;;;;19.07;70.74;100705.03;6303261;22;20485;-58
2022/09/08 06:01:13;;;;;;;7.88;4.10;;;;;;;19.10;70.59;100704.41;6305546;22;20011;-58
2022/09/08 06:03:38;;;;;;;6.82;4.25;;;;;;;19.00;70.76;100699.81;6306603;22;20026;-58
2022/09/08 06:06:07;;;;;;;5.40;3.80;;;;;;;19.03;71.10;100698.34;6303840;22;20416;-58
2022/09/08 06:08:33;;;;;;;6.68;4.60;;;;;;;19.08;70.80;100706.69;6306013;22;20007;-58
2022/09/08 06:10:58;;;;;;;5.05;3.90;;;;;;;19.04;71.20;100711.25;6304001;22;20074;-57
2022/09/08 06:13:23;;;;;;;7.30;4.22;;;;;;;19.07;71.20;100717.09;6305432;22;20007;-58
2022/09/08 06:15:49;;;;;;;6.25;4.85;;;;;;;18.99;71.29;100705.75;6306977;22;20497;-58
2022/09/08 06:18:16;;;;;;;10.30;5.35;;;;;;;19.00;70.73;100721.47;6305037;22;20092;-58
2022/09/08 06:20:43;;;;;;;6.22;4.80;;;;;;;19.03;71.23;100709.59;6306851;22;20371;-59
2022/09/08 06:23:09;;;;;;;6.22;4.13;;;;;;;19.15;70.39;100709.91;6305522;22;19995;-58
2022/09/08 06:25:46;;;;;;;7.68;3.90;;;;;;;19.28;69.41;100711.84;6305253;22;20057;-58
2022/09/08 06:28:32;;;;;;;3.40;2.85;;;;;;;19.42;68.69;100700.59;6302441;22;20039;-58
2022/09/08 06:30:58;;;;;;;6.35;2.67;;;;;;;19.52;68.31;100705.13;6302986;22;20007;-58
2022/09/08 06:33:39;;;;;;;5.22;2.97;;;;;;;19.58;67.90;100712.31;6303436;22;20289;-58
2022/09/08 06:36:15;;;;;;;6.68;3.80;;;;;;;19.52;69.27;100716.41;6305728;22;20050;-59
2022/09/08 06:38:49;;;;;;;6.07;3.08;;;;;;;19.61;68.31;100712.56;6305789;22;20017;-57
2022/09/08 06:41:20;;;;;;;6.88;5.10;;;;;;;19.48;69.47;100718.19;6305318;22;20007;-57
2022/09/08 06:43:51;;;;;;;5.05;2.92;;;;;;;19.64;68.42;100718.69;6305822;22;20003;-57
2022/09/08 06:46:21;;;;;;;5.10;3.13;;;;;;;19.65;68.18;100717.53;6305434;22;20098;-57
2022/09/08 06:48:47;;;;;;;5.38;3.20;;;;;;;19.61;68.76;100720.16;6304998;22;20019;-58
2022/09/08 06:51:15;;;;;;;5.95;3.10;;;;;;;19.68;68.26;100723.38;6306400;22;20006;-57
2022/09/08 06:53:51;;;;;;;6.50;5.18;;;;;;;19.52;69.40;100728.47;6304522;22;20078;-58
2022/09/08 06:56:17;;;;;;;5.55;3.10;;;;;;;19.70;68.51;100723.06;6306581;22;20004;-58
2022/09/08 06:58:44;;;;;;;8.07;5.72;;;;;;;19.54;68.75;100725.38;6305204;22;20007;-58
2022/09/08 07:01:39;;;;;;;7.50;4.35;;;;;;;19.68;68.46;100728.16;6303642;22;20025;-57
2022/09/08 07:04:13;;;;;;;7.82;3.42;;;;;;;19.73;68.26;100717.63;6305351;22;20378;-57
2022/09/08 07:06:59;;;;;;;7.90;5.05;;;;;;;19.68;68.64;100720.56;6306212;22;20327;-57
2022/09/08 07:09:45;;;;;;;9.18;4.65;;;;;;;19.72;68.45;100727.22;6305864;22;20017;-57
2022/09/08 07:12:19;;;;;;;8.05;3.70;;;;;;;19.78;68.20;100725.94;6305917;22;20644;-58
2022/09/08 07:14:50;;;;;;;7.95;5.07;;;;;;;19.70;68.47;100723.91;6305961;22;20078;-58
2022/09/08 07:17:43;;;;;;;6.38;3.65;;;;;;;19.81;68.00;100721.69;6305970;22;19999;-57
2022/09/08 07:20:11;;;;;;;5.93;3.58;;;;;;;19.80;68.27;100726.44;6305150;22;20007;-58
2022/09/08 07:22:56;;;;;;;5.50;3.55;;;;;;;19.82;67.76;100721.34;6303141;22;20074;-58
2022/09/08 07:25:35;;;;;;;7.82;6.07;;;;;;;19.70;68.61;100726.72;6305813;22;20003;-58
2022/09/08 07:28:10;;;;;;;7.55;4.15;;;;;;;19.77;68.38;100717.84;6305440;22;20078;-58
2022/09/08 07:30:37;;;;;;;6.75;3.17;;;;;;;19.82;68.28;100726.97;6305995;22;20003;-58
2022/09/08 07:33:08;;;;;;;6.97;6.22;;;;;;;19.60;69.34;100735.34;6305823;22;20082;-58
2022/09/08 07:35:45;;;;;;;6.85;3.83;;;;;;;19.72;68.39;100730.03;6305572;22;20011;-58
2022/09/08 07:38:17;;;;;;;5.93;3.55;;;;;;;19.77;68.57;100727.13;6305021;22;20003;-57
2022/09/08 07:40:45;;;;;;;8.07;4.60;;;;;;;19.83;68.92;100736.25;6306703;22;20019;-58
2022/09/08 07:43:13;;;;;;;8.90;4.78;;;;;;;19.86;68.35;100719.56;6304326;22;20006;-58
2022/09/08 07:45:48;;;;;;;11.52;5.13;;;;;;;19.90;68.70;100725.38;6306349;22;20011;-58
2022/09/08 07:48:51;;;;;;;5.03;3.53;;;;;;;20.00;67.71;100727.97;6304642;22;20059;-59
2022/09/08 07:51:21;;;;;;;7.00;5.10;;;;;;;20.01;67.86;100726.81;6304100;22;20015;-58
2022/09/08 07:54:06;;;;;;;5.18;3.10;;;;;;;20.08;67.47;100726.34;6303874;22;20007;-58
2022/09/08 07:56:47;;;;;;;4.68;3.45;;;;;;;20.12;66.80;100727.34;6304633;22;19999;-58
2022/09/08 07:59:33;;;;;;;6.03;2.90;;;;;;;20.19;67.42;100733.38;6304843;22;20082;-58
2022/09/08 08:02:16;;;;;;;8.02;5.15;;;;;;;20.14;67.29;100736.34;6305553;22;20017;-58
2022/09/08 08:04:54;;;;;;;5.75;3.47;;;;;;;20.23;67.08;100737.22;6304579;22;20007;-58
2022/09/08 08:07:26;;;;;;;6.05;3.38;;;;;;;20.22;66.76;100741.19;6305856;22;20097;-58
2022/09/08 08:10:16;;;;;;;6.15;4.18;;;;;;;20.25;66.43;100740.56;6304945;22;20015;-58
2022/09/08 08:12:53;;;;;;;8.52;6.40;;;;;;;20.21;66.34;100745.19;6303989;22;20338;-58
2022/09/08 08:15:25;;;;;;;7.10;5.53;;;;;;;20.16;66.10;100736.00;6305845;22;20015;-59
2022/09/08 08:18:32;;;;;;;5.90;4.45;;;;;;;20.23;66.26;100745.69;6303447;22;20003;-59
2022/09/08 08:21:14;;;;;;;7.68;5.80;;;;;;;20.24;66.46;100752.16;6289062;22;20078;-59
2022/09/08 08:23:44;;;;;;;5.57;3.25;;;;;;;20.38;65.43;100755.72;6304695;22;20010;-59
2022/09/08 08:26:42;;;;;;;5.50;4.80;;;;;;;20.35;65.74;100748.75;6305501;22;20305;-59
2022/09/08 08:29:31;;;;;;;6.05;4.47;;;;;;;20.43;65.44;100747.13;6247780;22;20061;-58
2022/09/08 08:32:09;;;;;;;4.43;3.42;;;;;;;20.56;64.66;100762.38;6307213;22;20003;-59
2022/09/08 08:34:51;;;;;;;6.00;4.60;;;;;;;20.54;65.16;100750.56;6306689;22;20066;-59
2022/09/08 08:37:28;;;;;;;3.42;2.50;;;;;;;20.66;61.62;100738.69;6307185;22;20007;-59
2022/09/08 08:39:55;;;;;;;4.18;3.00;;;;;;;20.74;63.69;100741.53;6306908;22;20015;-59
2022/09/08 08:42:47;;;;;;;6.60;4.00;;;;;;;20.69;64.24;100741.69;6307388;22;19999;-59
2022/09/08 08:45:36;;;;;;;4.07;3.03;;;;;;;20.82;63.76;100742.75;6307796;22;20422;-59
2022/09/08 08:48:25;;;;;;;6.60;2.70;;;;;;;20.89;63.44;100742.28;6307631;22;20007;-59
2022/09/08 08:51:03;;;;;;;5.22;2.75;;;;;;;20.89;63.50;100739.47;6306744;22;20043;-59
2022/09/08 08:53:42;;;;;;;3.95;2.45;;;;;;;20.90;63.09;100743.94;6305623;22;20011;-59
2022/09/08 08:56:16;;;;;;;5.13;2.80;;;;;;;20.81;62.37;100747.56;6307753;22;20003;-59
2022/09/08 08:58:50;;;;;;;4.80;3.40;;;;;;;20.74;62.95;100749.16;6306474;22;20007;-59
2022/09/08 09:01:15;;;;;;;4.25;2.40;;;;;;;20.78;63.01;100745.38;6306399;22;20419;-59
2022/09/08 09:04:18;;;;;;;5.03;2.10;;;;;;;20.81;63.26;100736.28;6307687;22;20010;-59
2022/09/08 09:07:06;;;;;;;3.65;2.03;;;;;;;20.80;61.66;100740.25;6306450;22;20245;-59
2022/09/08 09:09:40;;;;;;;5.90;2.28;;;;;;;20.69;63.16;100740.84;6306245;22;20432;-59
2022/09/08 09:12:23;;;;;;;6.40;1.92;;;;;;;20.88;62.03;100734.97;6307493;22;20011;-59
2022/09/08 09:15:06;;;;;;;3.53;1.60;;;;;;;20.93;61.95;100730.00;6304155;22;20007;-59
2022/09/08 09:17:57;;;;;;;4.07;1.95;;;;;;;21.03;62.20;100743.00;6305659;22;20011;-59
2022/09/08 09:20:44;;;;;;;2.40;1.40;;;;;;;21.12;62.11;100740.22;6307196;22;20007;-59
2022/09/08 09:23:28;;;;;;;2.65;1.40;;;;;;;21.20;60.80;100723.28;6304731;22;19999;-59
2022/09/08 09:25:59;;;;;;;3.85;1.65;;;;;;;21.29;60.63;100729.78;6305971;22;20007;-58
2022/09/08 09:28:54;;;;;;;4.97;1.77;;;;;;;21.36;61.17;100732.16;6305423;22;20013;-59
2022/09/08 09:31:36;;;;;;;2.53;1.30;;;;;;;21.40;59.65;100738.81;6306416;22;20015;-59
2022/09/08 09:34:29;;;;;;;6.20;1.70;;;;;;;21.44;59.40;100734.19;6306793;22;20023;-59
2022/09/08 09:37:29;;;;;;;4.97;1.50;;;;;;;21.52;60.25;100738.19;6306314;22;20007;-59
2022/09/08 09:40:23;;;;;;;5.05;1.55;;;;;;;21.53;60.67;100734.19;6306088;22;20031;-59
2022/09/08 09:43:23;;;;;;;3.75;1.38;;;;;;;21.61;60.03;100730.53;6305407;22;20003;-59
2022/09/08 09:46:03;;;;;;;6.22;1.52;;;;;;;21.63;60.09;100739.53;6307149;22;20003;-59
2022/09/08 09:48:46;;;;;;;4.70;1.70;;;;;;;21.62;59.70;100731.41;6306488;22;20023;-59
2022/09/08 09:51:40;;;;;;;6.53;1.40;;;;;;;21.59;59.18;100740.53;6306031;22;20090;-59
2022/09/08 09:54:50;;;;;;;3.75;1.40;;;;;;;21.57;59.63;100740.84;6306303;22;20300;-58
2022/09/08 09:58:00;;;;;;;3.67;1.50;;;;;;;21.47;59.45;100738.34;6304491;22;20007;-58
2022/09/08 10:00:48;;;;;;;5.90;1.73;;;;;;;21.31;57.81;100737.94;6247271;22;20034;-58
2022/09/08 10:03:30;;;;;;;3.80;1.45;;;;;;;21.36;58.63;100739.81;6304274;22;20014;-58
2022/09/08 10:06:24;;;;;;;4.35;1.40;;;;;;;21.43;59.25;100751.47;6307125;22;20014;-58
2022/09/08 10:09:07;;;;;;;3.17;1.33;;;;;;;21.43;58.70;100745.81;6305615;22;20062;-58
2022/09/08 10:11:55;;;;;;;3.58;1.30;;;;;;;21.45;58.54;100743.47;6305560;22;20013;-58
2022/09/08 10:14:44;;;;;;;2.90;1.20;;;;;;;21.56;58.72;100745.66;6306730;22;20082;-58
2022/09/08 10:17:28;;;;;;;4.28;1.30;;;;;;;21.59;58.18;100744.19;6305132;22;20065;-58
2022/09/08 10:20:27;;;;;;;5.68;1.38;;;;;;;21.63;58.16;100753.66;6305297;22;20084;-58
2022/09/08 10:23:34;;;;;;;4.10;1.70;;;;;;;21.54;58.04;100744.34;6305176;22;20003;-58
2022/09/08 10:26:23;;;;;;;6.55;1.80;;;;;;;21.51;58.47;100737.34;6304717;22;20010;-58
2022/09/08 10:29:20;;;;;;;6.03;1.60;;;;;;;21.52;58.12;100749.47;6306429;22;20094;-58
2022/09/08 10:32:15;;;;;;;4.75;1.77;;;;;;;21.52;58.06;100752.28;6194516;22;20460;-58
2022/09/08 10:34:53;;;;;;;3.78;1.40;;;;;;;21.45;57.33;100755.59;6307370;22;20008;-58
2022/09/08 10:37:48;;;;;;;4.68;1.40;;;;;;;21.44;58.15;100750.28;6305869;22;20011;-59
2022/09/08 10:40:33;;;;;;;5.28;1.40;;;;;;;21.48;57.82;100746.47;6272073;22;20003;-59
2022/09/08 10:43:28;;;;;;;4.13;1.30;;;;;;;21.53;57.89;100745.47;6303956;22;20374;-59
2022/09/08 10:46:14;;;;;;;4.97;1.40;;;;;;;21.52;57.38;100747.47;6305949;22;20095;-59
2022/09/08 10:48:59;;;;;;;6.22;1.55;;;;;;;21.57;57.55;100738.00;6304747;22;20011;-59
2022/09/08 10:51:39;;;;;;;5.07;1.70;;;;;;;21.54;57.33;100741.53;6306474;22;20332;-59
2022/09/08 10:54:34;;;;;;;6.00;1.30;;;;;;;21.55;57.50;100732.69;6305866;22;19991;-57
2022/09/08 10:56:59;;;;;;;4.60;1.52;;;;;;;21.49;57.62;100736.00;6304686;22;20003;-58
2022/09/08 10:59:50;;;;;;;8.68;1.80;;;;;;;21.38;57.83;100734.66;6304071;22;20053;-57
2022/09/08 11:02:29;;;;;;;6.85;1.65;;;;;;;21.31;58.04;100743.59;6306767;22;20356;-57
2022/09/08 11:04:57;;;;;;;8.32;2.00;;;;;;;21.29;60.44;100737.44;6305617;22;19995;-57
2022/09/08 11:08:00;;;;;;;5.22;2.00;;;;;;;21.42;59.79;100727.19;6305215;22;20034;-57
2022/09/08 11:10:31;;;;;;;;;;;;;;;21.53;59.91;100734.19;6306702;22;20006;-59
2022/09/08 11:13:03;;;;;;;5.85;1.80;;;;;;;21.40;62.06;100727.53;6306771;22;19922;-58
2022/09/08 11:15:47;;;;;;;6.35;1.65;;;;;;;21.52;60.28;100733.34;6304965;22;20763;-58
2022/09/08 11:18:43;;;;;;;6.85;1.83;;;;;;;21.57;59.78;100721.06;6306304;22;20011;-58
2022/09/08 11:21:30;;;;;;;5.47;1.60;;;;;;;21.64;59.87;100729.88;6304901;22;20011;-58
2022/09/08 11:24:16;;;;;;;5.03;1.75;;;;;;;21.59;60.35;100724.41;6305727;22;20016;-58
2022/09/08 11:26:54;;;;;;;6.97;1.45;;;;;;;21.54;59.77;100727.41;6304483;22;20019;-59
2022/09/08 11:29:24;;;;;;;6.57;1.80;;;;;;;21.42;59.79;100718.72;6303923;22;20441;-59
2022/09/08 11:32:10;;;;;;;5.20;1.63;;;;;;;21.40;59.98;100716.22;6306077;22;20003;-58
2022/09/08 11:35:04;;;;;;;5.88;1.85;;;;;;;21.41;59.32;100715.06;6304849;22;20575;-59
2022/09/08 11:37:56;;;;;;;4.63;1.50;;;;;;;21.47;59.22;100715.75;6296599;22;20015;-59
2022/09/08 11:40:50;;;;;;;7.10;2.00;;;;;;;21.46;59.13;100711.28;6305982;22;20003;-58
2022/09/08 11:43:32;;;;;;;4.38;1.95;;;;;;;21.47;58.99;100707.28;6305497;22;20014;-58
2022/09/08 11:46:08;;;;;;;5.40;1.58;;;;;;;21.49;58.60;100711.41;6305917;22;20042;-58
2022/09/08 11:48:49;;;;;;;5.75;1.75;;;;;;;21.47;58.26;100708.13;6304892;22;20019;-58
2022/09/08 11:51:35;;;;;;;6.57;1.80;;;;;;;21.47;58.50;100710.94;6305213;22;20003;-58
2022/09/08 11:54:42;;;;;;;4.60;1.77;;;;;;;21.56;58.52;100705.28;6306901;22;20007;-59
2022/09/08 11:57:32;;;;;;;5.50;2.00;;;;;;;21.71;58.08;100704.81;6282738;22;20007;-58
2022/09/08 12:00:06;;;;;;;15.02;2.58;;;;;;;21.74;57.03;100692.03;6304880;22;20004;-58
2022/09/08 12:03:11;;;;;;;7.03;2.00;;;;;;;21.83;57.01;100695.66;6304304;22;20331;-58
2022/09/08 12:05:58;;;;;;;3.65;1.60;;;;;;;21.94;57.20;100696.16;6308148;22;20003;-58